createdAt,value
2018-03-20T00:01:47.169Z,96286.95
2018-03-20T00:04:13.281Z,96289.28
2018-03-20T00:06:39.342Z,96288.38
2018-03-20T00:09:05.324Z,96288.09
2018-03-20T00:11:31.357Z,96286.23
2018-03-20T00:13:57.451Z,96283.38
2018-03-20T00:16:23.433Z,96282.31
2018-03-20T00:18:49.429Z,96269.84
2018-03-20T00:21:15.465Z,96281.77
2018-03-20T00:23:41.498Z,96288.62
2018-03-20T00:26:07.520Z,96290.95
2018-03-20T00:28:33.532Z,96291.39
2018-03-20T00:30:59.570Z,96291.97
2018-03-20T00:33:25.601Z,96293.69
2018-03-20T00:35:51.630Z,96297.33
2018-03-20T00:38:17.604Z,96295.52
2018-03-20T00:40:43.641Z,96294.12
2018-03-20T00:43:09.699Z,96301.25
2018-03-20T00:45:35.709Z,96298.91
2018-03-20T00:48:01.717Z,96298.06
2018-03-20T00:50:27.737Z,96305.83
2018-03-20T00:52:53.777Z,96295.00
2018-03-20T00:55:19.821Z,96305.77
2018-03-20T00:57:45.818Z,96300.05
2018-03-20T01:00:11.900Z,96296.93
2018-03-20T01:02:37.924Z,96298.18
2018-03-20T01:05:04.345Z,96286.09
2018-03-20T01:07:30.339Z,96299.88
2018-03-20T01:09:56.380Z,96293.88
2018-03-20T01:12:22.364Z,96296.47
2018-03-20T01:14:48.408Z,96296.38
2018-03-20T01:17:14.470Z,96296.90
2018-03-20T01:19:40.448Z,96294.00
2018-03-20T01:22:06.466Z,96294.08
2018-03-20T01:24:32.453Z,96297.52
2018-03-20T01:26:58.669Z,96295.76
2018-03-20T01:29:24.719Z,96294.31
2018-03-20T01:31:50.725Z,96291.78
2018-03-20T01:34:16.773Z,96292.59
2018-03-20T01:36:42.751Z,96295.21
2018-03-20T01:39:08.746Z,96292.83
2018-03-20T01:41:34.789Z,96296.27
2018-03-20T01:44:00.824Z,96290.95
2018-03-20T01:46:26.859Z,96286.30
2018-03-20T01:48:52.910Z,96277.86
2018-03-20T01:51:18.885Z,96285.36
2018-03-20T01:53:44.935Z,96283.62
2018-03-20T01:56:11.053Z,96282.02
2018-03-20T01:58:37.040Z,96286.74
2018-03-20T02:01:03.140Z,96279.85
2018-03-20T02:03:29.227Z,96284.55
2018-03-20T02:05:55.205Z,96293.59
2018-03-20T02:08:21.206Z,96289.86
2018-03-20T02:10:47.259Z,96282.73
2018-03-20T02:13:13.277Z,96282.55
2018-03-20T02:15:39.370Z,96280.69
2018-03-20T02:18:05.434Z,96289.13
2018-03-20T02:20:31.374Z,96287.45
2018-03-20T02:22:57.413Z,96290.86
2018-03-20T02:25:23.420Z,96285.20
2018-03-20T02:27:49.462Z,96276.06
2018-03-20T02:30:15.455Z,96285.06
2018-03-20T02:32:41.446Z,96284.44
2018-03-20T02:35:07.476Z,96282.57
2018-03-20T02:37:33.488Z,96292.74
2018-03-20T02:39:59.531Z,96292.77
2018-03-20T02:42:25.553Z,96285.56
2018-03-20T02:44:51.607Z,96287.35
2018-03-20T02:47:17.616Z,96284.57
2018-03-20T02:49:43.645Z,96282.94
2018-03-20T02:52:09.625Z,96278.45
2018-03-20T02:54:35.652Z,96280.69
2018-03-20T02:57:01.704Z,96279.22
2018-03-20T02:59:27.722Z,96280.43
2018-03-20T03:01:53.710Z,96284.41
2018-03-20T03:04:19.828Z,96283.58
2018-03-20T03:06:45.913Z,96283.14
2018-03-20T03:09:11.938Z,96280.27
2018-03-20T03:11:37.939Z,96279.25
2018-03-20T03:14:03.977Z,96284.94
2018-03-20T03:16:29.977Z,96285.03
2018-03-20T03:18:55.999Z,96287.61
2018-03-20T03:21:21.977Z,96285.50
2018-03-20T03:23:48.074Z,96287.89
2018-03-20T03:26:14.074Z,96288.89
2018-03-20T03:28:40.001Z,96288.30
2018-03-20T03:31:06.030Z,96292.80
2018-03-20T03:33:32.066Z,96289.63
2018-03-20T03:35:58.113Z,96288.13
2018-03-20T03:38:24.161Z,96295.02
2018-03-20T03:40:50.452Z,96285.55
2018-03-20T03:43:16.470Z,96291.98
2018-03-20T03:45:42.514Z,96287.59
2018-03-20T03:48:08.515Z,96295.79
2018-03-20T03:50:34.513Z,96295.45
2018-03-20T03:53:00.536Z,96291.93
2018-03-20T03:55:26.526Z,96298.41
2018-03-20T03:57:52.574Z,96299.83
2018-03-20T04:00:18.655Z,96306.88
2018-03-20T04:02:44.689Z,96304.69
2018-03-20T04:05:10.729Z,96303.01
2018-03-20T04:07:36.825Z,96304.87
2018-03-20T04:10:02.980Z,96313.55
2018-03-20T04:12:29.034Z,96309.12
2018-03-20T04:14:55.057Z,96304.09
2018-03-20T04:17:21.096Z,96310.78
2018-03-20T04:19:47.113Z,96314.11
2018-03-20T04:22:13.134Z,96315.11
2018-03-20T04:24:39.135Z,96323.23
2018-03-20T04:27:05.150Z,96319.35
2018-03-20T04:29:31.241Z,96325.73
2018-03-20T04:31:57.245Z,96323.48
2018-03-20T04:34:23.304Z,96325.00
2018-03-20T04:36:49.342Z,96324.02
2018-03-20T04:39:15.322Z,96318.14
2018-03-20T04:41:41.366Z,96326.81
2018-03-20T04:44:07.417Z,96329.22
2018-03-20T04:46:33.442Z,96328.62
2018-03-20T04:48:59.586Z,96328.47
2018-03-20T04:51:25.661Z,96335.98
2018-03-20T04:53:51.713Z,96342.95
2018-03-20T04:56:17.748Z,96330.42
2018-03-20T04:58:43.785Z,96328.97
2018-03-20T05:01:09.813Z,96330.89
2018-03-20T05:03:35.818Z,96340.29
2018-03-20T05:06:01.791Z,96342.77
2018-03-20T05:08:27.826Z,96336.48
2018-03-20T05:10:53.865Z,96340.41
2018-03-20T05:13:19.878Z,96346.52
2018-03-20T05:15:45.944Z,96354.78
2018-03-20T05:18:11.982Z,96355.39
2018-03-20T05:20:41.017Z,96358.19
2018-03-20T05:23:21.882Z,96358.80
2018-03-20T05:25:47.923Z,96362.60
2018-03-20T05:28:13.959Z,96363.83
2018-03-20T05:30:39.994Z,96365.63
2018-03-20T05:33:06.081Z,96368.40
2018-03-20T05:35:32.093Z,96373.61
2018-03-20T05:37:58.153Z,96375.50
2018-03-20T05:40:24.166Z,96373.06
2018-03-20T05:42:50.224Z,96375.72
2018-03-20T05:45:16.260Z,96381.48
2018-03-20T05:50:55.617Z,96382.89
2018-03-20T05:53:21.710Z,96376.40
2018-03-20T05:55:47.809Z,96391.77
2018-03-20T05:58:13.869Z,96389.98
2018-03-20T06:00:39.898Z,96383.91
2018-03-20T06:03:05.915Z,96378.88
2018-03-20T06:05:32.066Z,96383.84
2018-03-20T06:07:58.069Z,96387.39
2018-03-20T06:10:24.102Z,96384.25
2018-03-20T06:12:50.130Z,96393.81
2018-03-20T06:15:16.173Z,96391.92
2018-03-20T06:17:42.446Z,96391.59
2018-03-20T06:20:08.446Z,96392.24
2018-03-20T06:22:34.564Z,96397.80
2018-03-20T06:25:00.628Z,96401.84
2018-03-20T06:27:26.626Z,96399.65
2018-03-20T06:29:52.661Z,96408.44
2018-03-20T06:32:18.660Z,96411.83
2018-03-20T06:34:44.655Z,96409.25
2018-03-20T06:37:10.705Z,96408.30
2018-03-20T06:39:36.687Z,96404.23
2018-03-20T06:42:03.019Z,96404.06
2018-03-20T06:44:29.057Z,96408.27
2018-03-20T06:46:55.074Z,96412.07
2018-03-20T06:49:21.085Z,96409.16
2018-03-20T06:51:47.090Z,96408.45
2018-03-20T06:54:13.142Z,96413.26
2018-03-20T06:56:39.178Z,96413.84
2018-03-20T06:59:05.241Z,96404.08
2018-03-20T07:01:31.299Z,96408.48
2018-03-20T07:03:57.334Z,96413.36
2018-03-20T07:06:23.313Z,96405.94
2018-03-20T07:08:49.242Z,96406.73
2018-03-20T07:11:15.217Z,96407.86
2018-03-20T07:13:41.789Z,96410.52
2018-03-20T07:16:07.801Z,96407.36
2018-03-20T07:18:33.857Z,96401.45
2018-03-20T07:20:59.852Z,96405.95
2018-03-20T07:23:25.879Z,96408.17
2018-03-20T07:25:51.960Z,96405.38
2018-03-20T07:28:18.050Z,96407.26
2018-03-20T07:30:43.994Z,96404.46
2018-03-20T07:33:09.977Z,96405.76
2018-03-20T07:35:36.003Z,96401.88
2018-03-20T07:38:02.000Z,96400.52
2018-03-20T07:40:28.018Z,96399.20
2018-03-20T07:42:54.027Z,96400.14
2018-03-20T07:45:20.041Z,96393.17
2018-03-20T07:47:46.038Z,96388.27
2018-03-20T07:50:12.057Z,96391.17
2018-03-20T07:52:38.082Z,96394.48
2018-03-20T07:55:04.070Z,96393.83
2018-03-20T07:57:30.081Z,96393.45
2018-03-20T07:59:56.160Z,96397.38
2018-03-20T08:02:22.184Z,96403.13
2018-03-20T08:04:48.209Z,96406.91
2018-03-20T08:07:14.238Z,96411.09
2018-03-20T08:09:40.424Z,96417.37
2018-03-20T08:12:06.458Z,96408.99
2018-03-20T08:14:32.497Z,96414.17
2018-03-20T08:16:58.510Z,96414.85
2018-03-20T08:19:24.556Z,96418.09
2018-03-20T08:21:50.580Z,96418.70
2018-03-20T08:24:16.609Z,96422.91
2018-03-20T08:26:42.673Z,96418.55
2018-03-20T08:29:08.665Z,96422.84
2018-03-20T08:31:34.674Z,96433.36
2018-03-20T08:34:00.652Z,96431.23
2018-03-20T08:36:26.722Z,96430.15
2018-03-20T08:38:52.765Z,96430.16
2018-03-20T08:41:18.709Z,96431.59
2018-03-20T08:43:44.710Z,96430.36
2018-03-20T08:46:10.678Z,96435.03
2018-03-20T08:48:36.722Z,96435.95
2018-03-20T08:51:02.822Z,96430.90
2018-03-20T08:53:28.846Z,96440.73
2018-03-20T08:55:54.918Z,96433.09
2018-03-20T08:58:20.927Z,96438.23
2018-03-20T09:00:47.290Z,96437.78
2018-03-20T09:03:13.346Z,96435.20
2018-03-20T09:05:39.358Z,96435.23
2018-03-20T09:08:05.878Z,96436.44
2018-03-20T09:10:32.000Z,96443.42
2018-03-20T09:12:58.040Z,96440.30
2018-03-20T09:15:24.071Z,96440.75
2018-03-20T09:17:50.096Z,96435.30
2018-03-20T09:20:16.118Z,96438.33
2018-03-20T09:22:42.109Z,96424.89
2018-03-20T09:25:08.126Z,96426.60
2018-03-20T09:27:34.169Z,96432.97
2018-03-20T09:30:00.183Z,96429.74
2018-03-20T09:32:26.198Z,96434.41
2018-03-20T09:34:52.169Z,96435.46
2018-03-20T09:37:18.159Z,96440.87
2018-03-20T09:39:44.204Z,96439.95
2018-03-20T09:42:10.270Z,96447.14
2018-03-20T09:44:36.369Z,96448.97
2018-03-20T09:47:02.389Z,96445.34
2018-03-20T09:49:28.434Z,96439.59
2018-03-20T09:51:54.446Z,96447.91
2018-03-20T09:54:20.480Z,96448.05
2018-03-20T09:56:46.509Z,96446.47
2018-03-20T09:59:12.474Z,96449.61
2018-03-20T10:01:38.551Z,96448.59
2018-03-20T10:04:04.577Z,96449.38
2018-03-20T10:06:30.615Z,96442.73
2018-03-20T10:08:56.648Z,96442.73
2018-03-20T10:11:22.702Z,96431.95
2018-03-20T10:13:48.733Z,96429.72
2018-03-20T10:16:14.750Z,96435.58
2018-03-20T10:18:40.776Z,96429.16
2018-03-20T10:21:06.725Z,96439.84
2018-03-20T10:23:32.752Z,96434.48
2018-03-20T10:25:58.773Z,96442.48
2018-03-20T10:28:24.762Z,96431.94
2018-03-20T10:30:50.794Z,96440.92
2018-03-20T10:33:16.803Z,96440.59
2018-03-20T10:35:42.819Z,96452.68
2018-03-20T10:38:09.162Z,96434.29
2018-03-20T10:40:35.189Z,96442.27
2018-03-20T10:43:01.166Z,96437.20
2018-03-20T10:45:27.174Z,96435.30
2018-03-20T10:47:53.261Z,96434.14
2018-03-20T10:50:19.277Z,96436.96
2018-03-20T10:52:45.336Z,96435.38
2018-03-20T10:55:11.392Z,96444.23
2018-03-20T10:57:37.468Z,96446.45
2018-03-20T11:00:03.809Z,96445.99
2018-03-20T11:02:30.664Z,96437.55
2018-03-20T11:04:56.722Z,96440.55
2018-03-20T11:07:22.787Z,96449.08
2018-03-20T11:09:49.353Z,96438.95
2018-03-20T11:12:15.362Z,96441.23
2018-03-20T11:14:41.405Z,96449.58
2018-03-20T11:17:07.430Z,96450.36
2018-03-20T11:19:33.480Z,96459.80
2018-03-20T11:21:59.569Z,96457.30
2018-03-20T11:24:25.684Z,96455.88
2018-03-20T11:26:51.665Z,96451.52
2018-03-20T11:29:17.693Z,96453.52
2018-03-20T11:31:43.826Z,96457.97
2018-03-20T11:34:09.911Z,96466.80
2018-03-20T11:36:35.981Z,96467.94
2018-03-20T11:39:02.034Z,96473.28
2018-03-20T11:41:28.041Z,96471.63
2018-03-20T11:43:54.072Z,96477.77
2018-03-20T11:46:20.072Z,96473.36
2018-03-20T11:48:46.061Z,96471.61
2018-03-20T11:51:12.087Z,96481.98
2018-03-20T11:53:38.102Z,96478.41
2018-03-20T11:56:04.160Z,96474.02
2018-03-20T11:58:30.437Z,96476.28
2018-03-20T12:00:56.514Z,96486.26
2018-03-20T12:03:22.529Z,96483.40
2018-03-20T12:05:48.522Z,96481.02
2018-03-20T12:08:26.690Z,96480.38
2018-03-20T12:10:52.750Z,96494.13
2018-03-20T12:13:19.234Z,96484.65
2018-03-20T12:15:45.279Z,96492.61
2018-03-20T12:18:11.318Z,96498.81
2018-03-20T12:20:37.330Z,96506.12
2018-03-20T12:23:03.386Z,96499.91
2018-03-20T12:25:29.446Z,96512.80
2018-03-20T12:27:55.502Z,96515.84
2018-03-20T12:30:21.587Z,96513.74
2018-03-20T12:32:47.613Z,96517.23
2018-03-20T12:35:13.618Z,96514.47
2018-03-20T12:37:39.666Z,96510.63
2018-03-20T12:40:05.689Z,96523.45
2018-03-20T12:42:31.784Z,96521.96
2018-03-20T12:44:57.798Z,96524.94
2018-03-20T12:47:23.821Z,96533.95
2018-03-20T12:49:49.885Z,96530.82
2018-03-20T12:52:15.906Z,96539.98
2018-03-20T12:54:41.965Z,96540.20
2018-03-20T12:57:07.961Z,96539.05
2018-03-20T12:59:33.952Z,96543.72
2018-03-20T13:01:59.975Z,96554.66
2018-03-20T13:04:26.009Z,96528.98
2018-03-20T13:06:51.965Z,96554.92
2018-03-20T13:09:18.001Z,96564.42
2018-03-20T13:11:44.058Z,96566.03
2018-03-20T13:14:10.136Z,96572.44
2018-03-20T13:16:36.240Z,96575.05
2018-03-20T13:19:02.238Z,96567.42
2018-03-20T13:21:28.263Z,96574.36
2018-03-20T13:23:54.259Z,96576.09
2018-03-20T13:26:20.286Z,96581.84
2018-03-20T13:28:46.333Z,96582.88
2018-03-20T13:31:12.405Z,96592.31
2018-03-20T13:33:38.410Z,96598.17
2018-03-20T13:36:04.522Z,96593.73
2018-03-20T13:38:30.542Z,96601.72
2018-03-20T13:40:56.580Z,96598.72
2018-03-20T13:43:22.525Z,96601.72
2018-03-20T13:45:48.597Z,96606.53
2018-03-20T13:48:14.622Z,96611.30
2018-03-20T13:50:40.629Z,96617.05
2018-03-20T13:53:06.702Z,96619.63
2018-03-20T13:55:32.753Z,96619.33
2018-03-20T13:57:58.794Z,96618.98
2018-03-20T14:00:24.837Z,96611.86
2018-03-20T14:02:50.861Z,96623.54
2018-03-20T14:05:16.917Z,96618.33
2018-03-20T14:07:42.908Z,96628.54
2018-03-20T14:10:08.930Z,96635.01
2018-03-20T14:12:34.978Z,96629.22
2018-03-20T14:15:00.977Z,96650.22
2018-03-20T14:17:27.032Z,96643.86
2018-03-20T14:19:53.097Z,96646.30
2018-03-20T14:22:19.077Z,96648.78
2018-03-20T14:24:45.108Z,96647.23
2018-03-20T14:27:11.165Z,96649.36
2018-03-20T14:29:37.868Z,96658.64
2018-03-20T14:32:04.117Z,96663.99
2018-03-20T14:34:30.090Z,96665.03
2018-03-20T14:36:56.114Z,96672.05
2018-03-20T14:39:22.169Z,96661.23
2018-03-20T14:41:48.192Z,96670.40
2018-03-20T14:44:14.192Z,96671.47
2018-03-20T14:46:40.230Z,96677.81
2018-03-20T14:49:06.290Z,96682.36
2018-03-20T14:51:32.430Z,96685.72
2018-03-20T14:53:58.423Z,96696.61
2018-03-20T14:56:24.753Z,96697.62
2018-03-20T14:58:50.754Z,96703.27
2018-03-20T15:01:16.869Z,96700.92
2018-03-20T15:03:42.942Z,96704.80
2018-03-20T15:06:08.963Z,96707.78
2018-03-20T15:08:35.030Z,96707.85
2018-03-20T15:11:01.011Z,96711.61
2018-03-20T15:13:26.976Z,96718.31
2018-03-20T15:15:53.039Z,96723.36
2018-03-20T15:18:19.083Z,96725.97
2018-03-20T15:20:45.118Z,96726.34
2018-03-20T15:23:11.138Z,96733.32
2018-03-20T15:25:37.237Z,96732.02
2018-03-20T15:28:03.278Z,96742.59
2018-03-20T15:30:29.370Z,96739.68
2018-03-20T15:32:55.483Z,96746.69
2018-03-20T15:35:21.586Z,96749.50
2018-03-20T15:37:47.757Z,96753.01
2018-03-20T15:40:14.464Z,96759.91
2018-03-20T15:42:40.531Z,96761.73
2018-03-20T15:45:07.189Z,96766.44
2018-03-20T15:47:33.300Z,96763.92
2018-03-20T15:49:59.414Z,96768.43
2018-03-20T15:52:25.456Z,96769.68
2018-03-20T15:54:51.591Z,96785.02
2018-03-20T15:57:17.636Z,96788.11
2018-03-20T15:59:43.719Z,96792.33
2018-03-20T16:02:09.770Z,96794.80
2018-03-20T16:04:35.791Z,96797.91
2018-03-20T16:07:01.886Z,96802.27
2018-03-20T16:09:27.924Z,96793.04
2018-03-20T16:11:53.933Z,96807.34
2018-03-20T16:14:20.018Z,96808.97
2018-03-20T16:16:46.048Z,96817.93
2018-03-20T16:19:12.857Z,96821.84
2018-03-20T16:21:38.927Z,96828.30
2018-03-20T16:24:05.004Z,96830.77
2018-03-20T16:26:31.082Z,96826.77
2018-03-20T16:28:57.149Z,96840.73
2018-03-20T16:31:23.170Z,96842.66
2018-03-20T16:33:49.222Z,96840.20
2018-03-20T16:36:15.265Z,96845.60
2018-03-20T16:38:41.269Z,96848.77
2018-03-20T16:41:07.286Z,96863.13
2018-03-20T16:43:33.333Z,96864.58
2018-03-20T16:45:59.436Z,96871.02
2018-03-20T16:48:25.485Z,96866.44
2018-03-20T16:50:51.479Z,96876.50
2018-03-20T16:53:17.519Z,96884.80
2018-03-20T16:55:43.549Z,96888.20
2018-03-20T16:58:09.609Z,96895.69
2018-03-20T17:00:35.625Z,96900.36
2018-03-20T17:03:01.714Z,96895.20
2018-03-20T17:05:27.719Z,96904.80
2018-03-20T17:07:53.776Z,96905.68
2018-03-20T17:10:19.865Z,96908.64
2018-03-20T17:12:45.934Z,96910.90
2018-03-20T17:15:11.944Z,96921.86
2018-03-20T17:17:37.984Z,96925.27
2018-03-20T17:20:04.111Z,96924.66
2018-03-20T17:22:30.199Z,96932.39
2018-03-20T17:24:56.335Z,96938.76
2018-03-20T17:27:22.362Z,96942.56
2018-03-20T17:29:48.367Z,96940.73
2018-03-20T17:32:14.402Z,96938.22
2018-03-20T17:34:40.483Z,96946.25
2018-03-20T17:37:06.470Z,96957.05
2018-03-20T17:39:32.549Z,96956.64
2018-03-20T17:41:58.609Z,96959.86
2018-03-20T17:44:24.642Z,96964.78
2018-03-20T17:46:51.077Z,96967.64
2018-03-20T17:49:17.239Z,96972.91
2018-03-20T17:51:43.266Z,96978.64
2018-03-20T17:54:09.246Z,96983.90
2018-03-20T17:56:35.351Z,96976.53
2018-03-20T17:59:01.355Z,96983.14
2018-03-20T18:01:27.566Z,96981.81
2018-03-20T18:03:53.887Z,96982.14
2018-03-20T18:06:20.303Z,96993.95
2018-03-20T18:08:46.577Z,97001.74
2018-03-20T18:11:12.601Z,97007.69
2018-03-20T18:13:38.630Z,97012.52
2018-03-20T18:16:04.730Z,97020.64
2018-03-20T18:18:30.930Z,97019.55
2018-03-20T18:20:56.961Z,97030.70
2018-03-20T18:23:23.006Z,97039.31
2018-03-20T18:25:49.014Z,97033.45
2018-03-20T18:28:15.138Z,97043.37
2018-03-20T18:30:41.199Z,97043.71
2018-03-20T18:33:07.340Z,97049.27
2018-03-20T18:35:33.338Z,97050.33
2018-03-20T18:37:59.392Z,97060.50
2018-03-20T18:40:25.462Z,97062.95
2018-03-20T18:42:51.497Z,97073.42
2018-03-20T18:45:17.561Z,97070.86
2018-03-20T18:47:43.570Z,97076.44
2018-03-20T18:50:09.558Z,97077.67
2018-03-20T18:52:35.611Z,97076.17
2018-03-20T18:55:01.666Z,97083.63
2018-03-20T18:57:27.698Z,97083.48
2018-03-20T18:59:53.823Z,97094.06
2018-03-20T19:02:19.898Z,97097.33
2018-03-20T19:04:46.035Z,97107.09
2018-03-20T19:07:12.193Z,97104.22
2018-03-20T19:09:38.374Z,97109.42
2018-03-20T19:12:04.477Z,97116.40
2018-03-20T19:14:30.547Z,97124.46
2018-03-20T19:16:56.565Z,97129.86
2018-03-20T19:19:22.657Z,97130.88
2018-03-20T19:21:48.693Z,97134.06
2018-03-20T19:24:14.738Z,97132.13
2018-03-20T19:26:40.876Z,97149.00
2018-03-20T19:29:06.942Z,97147.83
2018-03-20T19:31:33.003Z,97156.27
2018-03-20T19:33:59.491Z,97160.58
2018-03-20T19:36:25.464Z,97165.63
2018-03-20T19:38:51.506Z,97166.95
2018-03-20T19:41:17.629Z,97177.07
2018-03-20T19:43:43.666Z,97176.56
2018-03-20T19:46:09.674Z,97174.98
2018-03-20T19:48:35.666Z,97178.38
2018-03-20T19:51:01.783Z,97183.40
2018-03-20T19:53:27.793Z,97179.94
2018-03-20T19:55:53.815Z,97189.70
2018-03-20T19:58:19.889Z,97193.20
2018-03-20T20:00:46.105Z,97199.30
2018-03-20T20:03:12.272Z,97202.96
2018-03-20T20:05:38.536Z,97206.81
2018-03-20T20:08:04.669Z,97204.88
2018-03-20T20:10:30.805Z,97205.86
2018-03-20T20:12:56.838Z,97215.63
2018-03-20T20:15:23.013Z,97218.06
2018-03-20T20:17:49.069Z,97219.23
2018-03-20T20:20:15.086Z,97224.98
2018-03-20T20:22:45.047Z,97230.57
2018-03-20T20:25:11.125Z,97229.74
2018-03-20T20:27:37.130Z,97231.44
2018-03-20T20:30:03.490Z,97243.88
2018-03-20T20:32:29.511Z,97241.70
2018-03-20T20:34:55.541Z,97242.78
2018-03-20T20:37:21.659Z,97241.36
2018-03-20T20:39:47.727Z,97252.58
2018-03-20T20:42:13.806Z,97253.75
2018-03-20T20:44:39.913Z,97254.63
2018-03-20T20:47:06.043Z,97261.94
2018-03-20T20:49:32.161Z,97261.67
2018-03-20T20:51:58.222Z,97265.09
2018-03-20T20:54:24.283Z,97266.43
2018-03-20T20:56:50.362Z,97263.72
2018-03-20T20:59:16.458Z,97268.71
2018-03-20T21:01:42.511Z,97269.46
2018-03-20T21:04:10.459Z,97266.83
2018-03-20T21:06:36.494Z,97266.27
2018-03-20T21:09:02.493Z,97269.11
2018-03-20T21:11:28.567Z,97275.05
2018-03-20T21:13:54.587Z,97281.47
2018-03-20T21:16:20.646Z,97278.13
2018-03-20T21:18:46.658Z,97279.37
2018-03-20T21:21:12.690Z,97279.77
2018-03-20T21:23:39.011Z,97283.28
2018-03-20T21:26:04.989Z,97291.11
2018-03-20T21:28:31.045Z,97295.80
2018-03-20T21:30:57.062Z,97295.99
2018-03-20T21:33:23.122Z,97300.67
2018-03-20T21:35:49.189Z,97300.67
2018-03-20T21:38:15.232Z,97292.17
2018-03-20T21:40:41.226Z,97299.65
2018-03-20T21:43:07.306Z,97296.42
2018-03-20T21:45:33.359Z,97297.84
2018-03-20T21:47:59.429Z,97302.60
2018-03-20T21:50:25.407Z,97299.41
2018-03-20T21:52:51.425Z,97301.42
2018-03-20T21:55:17.439Z,97301.34
2018-03-20T21:57:43.500Z,97297.56
2018-03-20T22:00:09.494Z,97295.52
2018-03-20T22:02:35.537Z,97303.31
2018-03-20T22:05:01.607Z,97305.67
2018-03-20T22:07:27.634Z,97308.51
2018-03-20T22:09:53.740Z,97307.92
2018-03-20T22:12:19.746Z,97313.27
2018-03-20T22:14:46.074Z,97301.58
2018-03-20T22:17:12.150Z,97314.52
2018-03-20T22:19:38.155Z,97320.70
2018-03-20T22:22:04.270Z,97318.93
2018-03-20T22:24:30.283Z,97324.41
2018-03-20T22:26:56.325Z,97335.05
2018-03-20T22:29:22.345Z,97335.56
2018-03-20T22:31:48.381Z,97347.30
2018-03-20T22:34:14.357Z,97351.05
2018-03-20T22:36:40.398Z,97350.24
2018-03-20T22:39:06.450Z,97345.73
2018-03-20T22:41:32.472Z,97350.38
2018-03-20T22:43:58.519Z,97346.73
2018-03-20T22:46:24.549Z,97347.91
2018-03-20T22:48:50.558Z,97363.61
2018-03-20T22:51:16.577Z,97360.23
2018-03-20T22:53:42.638Z,97368.05
2018-03-20T22:56:08.657Z,97374.09
2018-03-20T22:58:34.652Z,97368.56
2018-03-20T23:01:00.690Z,97370.33
2018-03-20T23:03:26.745Z,97376.13
2018-03-20T23:05:52.813Z,97376.12
2018-03-20T23:08:18.804Z,97377.94
2018-03-20T23:10:44.810Z,97382.84
2018-03-20T23:13:10.794Z,97385.94
2018-03-20T23:15:36.826Z,97385.45
2018-03-20T23:18:02.839Z,97380.94
2018-03-20T23:20:28.820Z,97377.20
2018-03-20T23:22:54.848Z,97380.86
2018-03-20T23:25:20.913Z,97385.95
2018-03-20T23:27:46.916Z,97386.91
2018-03-20T23:30:12.957Z,97394.23
2018-03-20T23:32:38.965Z,97396.32
2018-03-20T23:35:05.017Z,97394.68
2018-03-20T23:37:31.064Z,97399.31
2018-03-20T23:39:57.122Z,97404.52
2018-03-20T23:42:23.155Z,97406.66
2018-03-20T23:47:15.161Z,97397.80
2018-03-20T23:49:41.242Z,97404.17
2018-03-20T23:52:07.250Z,97401.63
2018-03-20T23:54:33.304Z,97413.81
2018-03-20T23:56:59.324Z,97413.83
2018-03-20T23:59:25.342Z,97426.13
